sensor_id;sensor_type;location;lat;lon;timestamp;temperature;humidity
22738;DHT22;11536;50.860;4.286;2023-05-07T00:00:33;17.50;99.90
22738;DHT22;11536;50.860;4.286;2023-05-07T00:03:03;17.50;99.90
22738;DHT22;11536;50.860;4.286;2023-05-07T00:05:29;17.50;99.90
22738;DHT22;11536;50.860;4.286;2023-05-07T00:07:55;17.50;99.90
22738;DHT22;11536;50.860;4.286;2023-05-07T00:10:21;17.50;99.90
22738;DHT22;11536;50.860;4.286;2023-05-07T00:12:46;17.50;99.90
22738;DHT22;11536;50.860;4.286;2023-05-07T00:15:12;17.50;99.90
22738;DHT22;11536;50.860;4.286;2023-05-07T00:17:38;17.50;99.90
22738;DHT22;11536;50.860;4.286;2023-05-07T00:20:04;17.50;99.90
22738;DHT22;11536;50.860;4.286;2023-05-07T00:22:31;17.50;99.90
22738;DHT22;11536;50.860;4.286;2023-05-07T00:24:58;17.50;99.90
22738;DHT22;11536;50.860;4.286;2023-05-07T00:27:24;17.50;99.90
22738;DHT22;11536;50.860;4.286;2023-05-07T00:29:49;17.50;99.90
22738;DHT22;11536;50.860;4.286;2023-05-07T00:32:15;17.50;99.90
22738;DHT22;11536;50.860;4.286;2023-05-07T00:34:41;17.50;99.90
22738;DHT22;11536;50.860;4.286;2023-05-07T00:37:06;17.50;99.90
22738;DHT22;11536;50.860;4.286;2023-05-07T00:39:35;17.50;99.90
22738;DHT22;11536;50.860;4.286;2023-05-07T00:42:01;17.50;99.90
22738;DHT22;11536;50.860;4.286;2023-05-07T00:44:28;17.50;99.90
22738;DHT22;11536;50.860;4.286;2023-05-07T00:46:54;17.40;99.90
22738;DHT22;11536;50.860;4.286;2023-05-07T00:49:20;17.40;99.90
22738;DHT22;11536;50.860;4.286;2023-05-07T00:51:46;17.40;99.90
22738;DHT22;11536;50.860;4.286;2023-05-07T00:54:13;17.40;99.90
22738;DHT22;11536;50.860;4.286;2023-05-07T00:56:39;17.40;99.90
22738;DHT22;11536;50.860;4.286;2023-05-07T00:59:06;17.40;99.90
22738;DHT22;11536;50.860;4.286;2023-05-07T01:01:32;17.30;99.90
22738;DHT22;11536;50.860;4.286;2023-05-07T01:03:57;17.30;99.90
22738;DHT22;11536;50.860;4.286;2023-05-07T01:06:24;17.30;99.90
22738;DHT22;11536;50.860;4.286;2023-05-07T01:08:51;17.20;99.90
22738;DHT22;11536;50.860;4.286;2023-05-07T01:11:18;17.20;99.90
22738;DHT22;11536;50.860;4.286;2023-05-07T01:13:46;17.20;99.90
22738;DHT22;11536;50.860;4.286;2023-05-07T01:16:13;17.20;99.90
22738;DHT22;11536;50.860;4.286;2023-05-07T01:18:38;17.20;99.90
22738;DHT22;11536;50.860;4.286;2023-05-07T01:21:05;17.10;99.90
22738;DHT22;11536;50.860;4.286;2023-05-07T01:23:33;17.10;99.90
22738;DHT22;11536;50.860;4.286;2023-05-07T01:25:59;17.10;99.90
22738;DHT22;11536;50.860;4.286;2023-05-07T01:28:24;17.00;99.90
22738;DHT22;11536;50.860;4.286;2023-05-07T01:30:53;17.00;99.90
22738;DHT22;11536;50.860;4.286;2023-05-07T01:33:21;17.00;99.90
22738;DHT22;11536;50.860;4.286;2023-05-07T01:35:51;17.00;99.90
22738;DHT22;11536;50.860;4.286;2023-05-07T01:38:18;16.90;99.90
22738;DHT22;11536;50.860;4.286;2023-05-07T01:40:44;16.90;99.90
22738;DHT22;11536;50.860;4.286;2023-05-07T01:43:10;16.80;99.90
22738;DHT22;11536;50.860;4.286;2023-05-07T01:45:36;16.80;99.90
22738;DHT22;11536;50.860;4.286;2023-05-07T01:48:03;16.80;99.90
22738;DHT22;11536;50.860;4.286;2023-05-07T01:50:30;16.70;99.90
22738;DHT22;11536;50.860;4.286;2023-05-07T01:52:57;16.70;99.90
22738;DHT22;11536;50.860;4.286;2023-05-07T01:55:22;16.70;99.90
22738;DHT22;11536;50.860;4.286;2023-05-07T01:57:49;16.60;99.90
22738;DHT22;11536;50.860;4.286;2023-05-07T02:00:15;16.60;99.90
22738;DHT22;11536;50.860;4.286;2023-05-07T02:02:40;16.50;99.90
22738;DHT22;11536;50.860;4.286;2023-05-07T02:05:06;16.50;99.90
22738;DHT22;11536;50.860;4.286;2023-05-07T02:07:32;16.50;99.90
22738;DHT22;11536;50.860;4.286;2023-05-07T02:09:58;16.50;99.90
22738;DHT22;11536;50.860;4.286;2023-05-07T02:12:23;16.50;99.90
22738;DHT22;11536;50.860;4.286;2023-05-07T02:14:49;16.40;99.90
22738;DHT22;11536;50.860;4.286;2023-05-07T02:17:15;16.40;99.90
22738;DHT22;11536;50.860;4.286;2023-05-07T02:19:40;16.40;99.90
22738;DHT22;11536;50.860;4.286;2023-05-07T02:22:07;16.40;99.90
22738;DHT22;11536;50.860;4.286;2023-05-07T02:24:32;16.40;99.90
22738;DHT22;11536;50.860;4.286;2023-05-07T02:26:58;16.40;99.90
22738;DHT22;11536;50.860;4.286;2023-05-07T02:29:24;16.30;99.90
22738;DHT22;11536;50.860;4.286;2023-05-07T02:31:49;16.30;99.90
22738;DHT22;11536;50.860;4.286;2023-05-07T02:34:18;16.30;99.90
22738;DHT22;11536;50.860;4.286;2023-05-07T02:36:44;16.30;99.90
22738;DHT22;11536;50.860;4.286;2023-05-07T02:39:11;16.30;99.90
22738;DHT22;11536;50.860;4.286;2023-05-07T02:41:37;16.30;99.90
22738;DHT22;11536;50.860;4.286;2023-05-07T02:44:02;16.30;99.90
22738;DHT22;11536;50.860;4.286;2023-05-07T02:46:28;16.30;99.90
22738;DHT22;11536;50.860;4.286;2023-05-07T02:48:54;16.30;99.90
22738;DHT22;11536;50.860;4.286;2023-05-07T02:51:21;16.30;99.90
22738;DHT22;11536;50.860;4.286;2023-05-07T02:53:47;16.20;99.90
22738;DHT22;11536;50.860;4.286;2023-05-07T02:56:12;16.20;99.90
22738;DHT22;11536;50.860;4.286;2023-05-07T02:58:38;16.20;99.90
22738;DHT22;11536;50.860;4.286;2023-05-07T03:01:09;16.20;99.90
22738;DHT22;11536;50.860;4.286;2023-05-07T03:03:35;16.30;99.90
22738;DHT22;11536;50.860;4.286;2023-05-07T03:06:01;16.20;99.90
22738;DHT22;11536;50.860;4.286;2023-05-07T03:08:27;16.20;99.90
22738;DHT22;11536;50.860;4.286;2023-05-07T03:10:53;16.20;99.90
22738;DHT22;11536;50.860;4.286;2023-05-07T03:13:19;16.10;99.90
22738;DHT22;11536;50.860;4.286;2023-05-07T03:15:44;16.10;99.90
22738;DHT22;11536;50.860;4.286;2023-05-07T03:18:10;16.10;99.90
22738;DHT22;11536;50.860;4.286;2023-05-07T03:20:36;16.10;99.90
22738;DHT22;11536;50.860;4.286;2023-05-07T03:23:02;16.10;99.90
22738;DHT22;11536;50.860;4.286;2023-05-07T03:25:28;16.10;99.90
22738;DHT22;11536;50.860;4.286;2023-05-07T03:27:55;16.10;99.90
22738;DHT22;11536;50.860;4.286;2023-05-07T03:30:21;16.10;99.90
22738;DHT22;11536;50.860;4.286;2023-05-07T03:32:47;16.10;99.90
22738;DHT22;11536;50.860;4.286;2023-05-07T03:35:12;16.10;99.90
22738;DHT22;11536;50.860;4.286;2023-05-07T03:37:38;16.10;99.90
22738;DHT22;11536;50.860;4.286;2023-05-07T03:40:05;16.10;99.90
22738;DHT22;11536;50.860;4.286;2023-05-07T03:42:31;16.20;99.90
22738;DHT22;11536;50.860;4.286;2023-05-07T03:44:57;16.10;99.90
22738;DHT22;11536;50.860;4.286;2023-05-07T03:47:22;16.20;99.90
22738;DHT22;11536;50.860;4.286;2023-05-07T03:49:48;16.20;99.90
22738;DHT22;11536;50.860;4.286;2023-05-07T03:52:14;16.20;99.90
22738;DHT22;11536;50.860;4.286;2023-05-07T03:54:40;16.20;99.90
22738;DHT22;11536;50.860;4.286;2023-05-07T03:57:06;16.20;99.90
22738;DHT22;11536;50.860;4.286;2023-05-07T03:59:32;16.20;99.90
22738;DHT22;11536;50.860;4.286;2023-05-07T04:01:58;16.20;99.90
22738;DHT22;11536;50.860;4.286;2023-05-07T04:04:23;16.20;99.90
22738;DHT22;11536;50.860;4.286;2023-05-07T04:06:49;16.20;99.90
22738;DHT22;11536;50.860;4.286;2023-05-07T04:09:15;16.20;99.90
22738;DHT22;11536;50.860;4.286;2023-05-07T04:11:40;16.30;99.90
22738;DHT22;11536;50.860;4.286;2023-05-07T04:14:06;16.30;99.90
22738;DHT22;11536;50.860;4.286;2023-05-07T04:16:32;16.30;99.90
22738;DHT22;11536;50.860;4.286;2023-05-07T04:18:57;16.30;99.90
22738;DHT22;11536;50.860;4.286;2023-05-07T04:21:23;16.30;99.90
22738;DHT22;11536;50.860;4.286;2023-05-07T04:23:49;16.30;99.90
22738;DHT22;11536;50.860;4.286;2023-05-07T04:26:15;16.30;99.90
22738;DHT22;11536;50.860;4.286;2023-05-07T04:28:41;16.30;99.90
22738;DHT22;11536;50.860;4.286;2023-05-07T04:31:07;16.30;99.90
22738;DHT22;11536;50.860;4.286;2023-05-07T04:33:32;16.30;99.90
22738;DHT22;11536;50.860;4.286;2023-05-07T04:36:01;16.30;99.90
22738;DHT22;11536;50.860;4.286;2023-05-07T04:38:31;16.30;99.90
22738;DHT22;11536;50.860;4.286;2023-05-07T04:40:58;16.30;99.90
22738;DHT22;11536;50.860;4.286;2023-05-07T04:43:23;16.30;99.90
22738;DHT22;11536;50.860;4.286;2023-05-07T04:45:52;16.30;99.90
22738;DHT22;11536;50.860;4.286;2023-05-07T04:48:17;16.30;99.90
22738;DHT22;11536;50.860;4.286;2023-05-07T04:50:49;16.30;99.90
22738;DHT22;11536;50.860;4.286;2023-05-07T04:53:15;16.30;99.90
22738;DHT22;11536;50.860;4.286;2023-05-07T04:55:41;16.30;99.90
22738;DHT22;11536;50.860;4.286;2023-05-07T04:58:07;16.20;99.90
22738;DHT22;11536;50.860;4.286;2023-05-07T05:00:33;16.30;99.90
22738;DHT22;11536;50.860;4.286;2023-05-07T05:02:59;16.30;99.90
22738;DHT22;11536;50.860;4.286;2023-05-07T05:05:24;16.30;99.90
22738;DHT22;11536;50.860;4.286;2023-05-07T05:07:50;16.30;99.90
22738;DHT22;11536;50.860;4.286;2023-05-07T05:10:17;16.30;99.90
22738;DHT22;11536;50.860;4.286;2023-05-07T05:12:43;16.30;99.90
22738;DHT22;11536;50.860;4.286;2023-05-07T05:15:09;16.40;99.90
22738;DHT22;11536;50.860;4.286;2023-05-07T05:17:35;16.40;99.90
22738;DHT22;11536;50.860;4.286;2023-05-07T05:20:02;16.40;99.90
22738;DHT22;11536;50.860;4.286;2023-05-07T05:22:27;16.40;99.90
22738;DHT22;11536;50.860;4.286;2023-05-07T05:24:56;16.40;99.90
22738;DHT22;11536;50.860;4.286;2023-05-07T05:27:22;16.40;99.90
22738;DHT22;11536;50.860;4.286;2023-05-07T05:29:47;16.50;99.90
22738;DHT22;11536;50.860;4.286;2023-05-07T05:32:13;16.50;99.90
22738;DHT22;11536;50.860;4.286;2023-05-07T05:34:38;16.50;99.90
22738;DHT22;11536;50.860;4.286;2023-05-07T05:37:04;16.60;99.90
22738;DHT22;11536;50.860;4.286;2023-05-07T05:39:30;16.60;99.90
22738;DHT22;11536;50.860;4.286;2023-05-07T05:41:56;16.60;99.90
22738;DHT22;11536;50.860;4.286;2023-05-07T05:44:21;16.70;99.90
22738;DHT22;11536;50.860;4.286;2023-05-07T05:46:47;16.60;99.90
22738;DHT22;11536;50.860;4.286;2023-05-07T05:49:15;16.70;99.90
22738;DHT22;11536;50.860;4.286;2023-05-07T05:51:40;16.60;99.90
22738;DHT22;11536;50.860;4.286;2023-05-07T05:54:06;16.70;99.90
22738;DHT22;11536;50.860;4.286;2023-05-07T05:56:32;16.70;99.90
22738;DHT22;11536;50.860;4.286;2023-05-07T05:58:58;16.70;99.90
22738;DHT22;11536;50.860;4.286;2023-05-07T06:01:24;16.70;99.90
22738;DHT22;11536;50.860;4.286;2023-05-07T06:03:49;16.70;99.90
22738;DHT22;11536;50.860;4.286;2023-05-07T06:06:15;16.70;99.90
22738;DHT22;11536;50.860;4.286;2023-05-07T06:08:41;16.70;99.90
22738;DHT22;11536;50.860;4.286;2023-05-07T06:11:07;16.70;99.90
22738;DHT22;11536;50.860;4.286;2023-05-07T06:13:32;16.70;99.90
22738;DHT22;11536;50.860;4.286;2023-05-07T06:15:58;16.70;99.90
22738;DHT22;11536;50.860;4.286;2023-05-07T06:18:24;16.70;99.90
22738;DHT22;11536;50.860;4.286;2023-05-07T06:20:51;16.80;99.90
22738;DHT22;11536;50.860;4.286;2023-05-07T06:23:17;16.70;99.90
22738;DHT22;11536;50.860;4.286;2023-05-07T06:25:45;16.70;99.90
22738;DHT22;11536;50.860;4.286;2023-05-07T06:28:11;16.70;99.90
22738;DHT22;11536;50.860;4.286;2023-05-07T06:30:36;16.80;99.90
22738;DHT22;11536;50.860;4.286;2023-05-07T06:33:02;16.80;99.90
22738;DHT22;11536;50.860;4.286;2023-05-07T06:35:28;16.80;99.90
22738;DHT22;11536;50.860;4.286;2023-05-07T06:37:53;16.80;99.90
22738;DHT22;11536;50.860;4.286;2023-05-07T06:40:19;16.80;99.90
22738;DHT22;11536;50.860;4.286;2023-05-07T06:42:44;16.80;99.90
22738;DHT22;11536;50.860;4.286;2023-05-07T06:45:10;16.80;99.90
22738;DHT22;11536;50.860;4.286;2023-05-07T06:47:36;16.90;99.90
22738;DHT22;11536;50.860;4.286;2023-05-07T06:50:02;16.90;99.90
22738;DHT22;11536;50.860;4.286;2023-05-07T06:52:27;16.90;99.90
22738;DHT22;11536;50.860;4.286;2023-05-07T06:54:53;16.90;99.90
22738;DHT22;11536;50.860;4.286;2023-05-07T06:57:18;16.90;99.90
22738;DHT22;11536;50.860;4.286;2023-05-07T06:59:44;16.90;99.90
22738;DHT22;11536;50.860;4.286;2023-05-07T07:02:10;16.90;99.90
22738;DHT22;11536;50.860;4.286;2023-05-07T07:04:35;16.90;99.90
22738;DHT22;11536;50.860;4.286;2023-05-07T07:07:01;17.00;99.90
22738;DHT22;11536;50.860;4.286;2023-05-07T07:09:27;17.00;99.90
22738;DHT22;11536;50.860;4.286;2023-05-07T07:11:52;17.00;99.90
22738;DHT22;11536;50.860;4.286;2023-05-07T07:14:18;17.00;99.90
22738;DHT22;11536;50.860;4.286;2023-05-07T07:16:43;17.00;99.90
22738;DHT22;11536;50.860;4.286;2023-05-07T07:19:09;17.00;99.90
22738;DHT22;11536;50.860;4.286;2023-05-07T07:21:35;17.00;99.90
22738;DHT22;11536;50.860;4.286;2023-05-07T07:24:00;17.00;99.90
22738;DHT22;11536;50.860;4.286;2023-05-07T07:26:26;17.00;99.90
22738;DHT22;11536;50.860;4.286;2023-05-07T07:28:52;17.00;99.90
22738;DHT22;11536;50.860;4.286;2023-05-07T07:31:17;17.00;99.90
22738;DHT22;11536;50.860;4.286;2023-05-07T07:33:43;17.00;99.90
22738;DHT22;11536;50.860;4.286;2023-05-07T07:36:09;17.00;99.90
22738;DHT22;11536;50.860;4.286;2023-05-07T07:38:35;17.10;99.90
22738;DHT22;11536;50.860;4.286;2023-05-07T07:41:01;17.10;99.90
22738;DHT22;11536;50.860;4.286;2023-05-07T07:43:27;17.10;99.90
22738;DHT22;11536;50.860;4.286;2023-05-07T07:45:53;17.10;99.90
22738;DHT22;11536;50.860;4.286;2023-05-07T07:48:19;17.10;99.90
22738;DHT22;11536;50.860;4.286;2023-05-07T07:50:45;17.10;99.90
22738;DHT22;11536;50.860;4.286;2023-05-07T07:53:10;17.10;99.90
22738;DHT22;11536;50.860;4.286;2023-05-07T07:55:39;17.10;99.90
22738;DHT22;11536;50.860;4.286;2023-05-07T07:58:05;17.10;99.90
22738;DHT22;11536;50.860;4.286;2023-05-07T08:00:31;17.20;99.90
22738;DHT22;11536;50.860;4.286;2023-05-07T08:02:57;17.20;99.90
22738;DHT22;11536;50.860;4.286;2023-05-07T08:05:23;17.20;99.90
22738;DHT22;11536;50.860;4.286;2023-05-07T08:07:48;17.20;99.90
22738;DHT22;11536;50.860;4.286;2023-05-07T08:10:18;17.20;99.90
22738;DHT22;11536;50.860;4.286;2023-05-07T08:12:50;17.20;99.90
22738;DHT22;11536;50.860;4.286;2023-05-07T08:15:17;17.20;99.90
22738;DHT22;11536;50.860;4.286;2023-05-07T08:17:43;17.20;99.90
22738;DHT22;11536;50.860;4.286;2023-05-07T08:20:08;17.20;99.90
22738;DHT22;11536;50.860;4.286;2023-05-07T08:22:35;17.20;99.90
22738;DHT22;11536;50.860;4.286;2023-05-07T08:25:01;17.20;99.90
22738;DHT22;11536;50.860;4.286;2023-05-07T08:27:27;17.20;99.90
22738;DHT22;11536;50.860;4.286;2023-05-07T08:29:53;17.20;99.90
22738;DHT22;11536;50.860;4.286;2023-05-07T08:32:20;17.20;99.90
22738;DHT22;11536;50.860;4.286;2023-05-07T08:34:46;17.20;99.90
22738;DHT22;11536;50.860;4.286;2023-05-07T08:37:11;17.30;99.90
22738;DHT22;11536;50.860;4.286;2023-05-07T08:39:37;17.20;99.90
22738;DHT22;11536;50.860;4.286;2023-05-07T08:42:04;17.30;99.90
22738;DHT22;11536;50.860;4.286;2023-05-07T08:44:33;17.30;99.90
22738;DHT22;11536;50.860;4.286;2023-05-07T08:47:01;17.20;99.90
22738;DHT22;11536;50.860;4.286;2023-05-07T08:49:27;17.20;99.90
22738;DHT22;11536;50.860;4.286;2023-05-07T08:51:53;17.20;99.90
22738;DHT22;11536;50.860;4.286;2023-05-07T08:54:20;17.20;99.90
22738;DHT22;11536;50.860;4.286;2023-05-07T08:56:46;17.20;99.90
22738;DHT22;11536;50.860;4.286;2023-05-07T08:59:12;17.20;99.90
22738;DHT22;11536;50.860;4.286;2023-05-07T09:01:37;17.20;99.90
22738;DHT22;11536;50.860;4.286;2023-05-07T09:04:04;17.30;99.90
22738;DHT22;11536;50.860;4.286;2023-05-07T09:06:31;17.30;99.90
22738;DHT22;11536;50.860;4.286;2023-05-07T09:08:59;17.30;99.90
22738;DHT22;11536;50.860;4.286;2023-05-07T09:11:30;17.30;99.90
22738;DHT22;11536;50.860;4.286;2023-05-07T09:13:57;17.30;99.90
22738;DHT22;11536;50.860;4.286;2023-05-07T09:16:25;17.30;99.90
22738;DHT22;11536;50.860;4.286;2023-05-07T09:18:52;17.30;99.90
22738;DHT22;11536;50.860;4.286;2023-05-07T09:21:19;17.30;99.90
22738;DHT22;11536;50.860;4.286;2023-05-07T09:23:50;17.30;99.90
22738;DHT22;11536;50.860;4.286;2023-05-07T09:26:16;17.30;99.90
22738;DHT22;11536;50.860;4.286;2023-05-07T09:28:42;17.30;99.90
22738;DHT22;11536;50.860;4.286;2023-05-07T09:31:09;17.30;99.90
22738;DHT22;11536;50.860;4.286;2023-05-07T09:33:35;17.30;99.90
22738;DHT22;11536;50.860;4.286;2023-05-07T09:36:04;17.30;99.90
22738;DHT22;11536;50.860;4.286;2023-05-07T09:38:32;17.40;99.90
22738;DHT22;11536;50.860;4.286;2023-05-07T09:41:09;17.30;99.90
22738;DHT22;11536;50.860;4.286;2023-05-07T09:43:36;17.30;99.90
22738;DHT22;11536;50.860;4.286;2023-05-07T09:46:15;17.40;99.90
22738;DHT22;11536;50.860;4.286;2023-05-07T09:48:43;17.30;99.90
22738;DHT22;11536;50.860;4.286;2023-05-07T09:51:34;17.30;99.90
22738;DHT22;11536;50.860;4.286;2023-05-07T09:54:04;17.30;99.90
22738;DHT22;11536;50.860;4.286;2023-05-07T09:56:30;17.30;99.90
22738;DHT22;11536;50.860;4.286;2023-05-07T09:59:00;17.30;99.90
22738;DHT22;11536;50.860;4.286;2023-05-07T10:01:27;17.30;99.90
22738;DHT22;11536;50.860;4.286;2023-05-07T10:03:53;17.30;99.90
22738;DHT22;11536;50.860;4.286;2023-05-07T10:06:20;17.30;99.90
22738;DHT22;11536;50.860;4.286;2023-05-07T10:08:46;17.40;99.90
22738;DHT22;11536;50.860;4.286;2023-05-07T10:11:14;17.40;99.90
22738;DHT22;11536;50.860;4.286;2023-05-07T10:13:41;17.40;99.90
22738;DHT22;11536;50.860;4.286;2023-05-07T10:16:08;17.40;99.90
22738;DHT22;11536;50.860;4.286;2023-05-07T10:18:34;17.40;99.90
22738;DHT22;11536;50.860;4.286;2023-05-07T10:23:28;17.40;99.90
22738;DHT22;11536;50.860;4.286;2023-05-07T10:25:56;17.40;99.90
22738;DHT22;11536;50.860;4.286;2023-05-07T10:28:24;17.40;99.90
22738;DHT22;11536;50.860;4.286;2023-05-07T10:33:37;17.40;99.90
22738;DHT22;11536;50.860;4.286;2023-05-07T10:36:05;17.40;99.90
22738;DHT22;11536;50.860;4.286;2023-05-07T10:38:33;17.40;99.90
22738;DHT22;11536;50.860;4.286;2023-05-07T10:40:59;17.40;99.90
22738;DHT22;11536;50.860;4.286;2023-05-07T10:43:26;17.40;99.90
22738;DHT22;11536;50.860;4.286;2023-05-07T10:46:16;17.40;99.90
22738;DHT22;11536;50.860;4.286;2023-05-07T10:51:28;17.40;99.90
22738;DHT22;11536;50.860;4.286;2023-05-07T10:56:43;17.50;99.90
22738;DHT22;11536;50.860;4.286;2023-05-07T11:04:17;17.50;99.90
22738;DHT22;11536;50.860;4.286;2023-05-07T11:15:06;17.60;99.90
22738;DHT22;11536;50.860;4.286;2023-05-07T11:17:58;17.60;99.90
22738;DHT22;11536;50.860;4.286;2023-05-07T11:26:07;17.70;99.90
22738;DHT22;11536;50.860;4.286;2023-05-07T11:28:38;17.70;99.90
22738;DHT22;11536;50.860;4.286;2023-05-07T11:31:04;17.80;99.90
22738;DHT22;11536;50.860;4.286;2023-05-07T11:33:33;17.80;99.90
22738;DHT22;11536;50.860;4.286;2023-05-07T11:36:03;17.80;99.90
22738;DHT22;11536;50.860;4.286;2023-05-07T11:38:38;17.80;99.90
22738;DHT22;11536;50.860;4.286;2023-05-07T11:41:04;17.80;99.90
22738;DHT22;11536;50.860;4.286;2023-05-07T11:43:33;17.90;99.90
22738;DHT22;11536;50.860;4.286;2023-05-07T11:46:11;17.90;99.90
22738;DHT22;11536;50.860;4.286;2023-05-07T11:48:38;17.90;99.90
22738;DHT22;11536;50.860;4.286;2023-05-07T11:51:05;17.90;99.90
22738;DHT22;11536;50.860;4.286;2023-05-07T11:53:41;17.90;99.90
22738;DHT22;11536;50.860;4.286;2023-05-07T11:56:12;18.00;99.90
22738;DHT22;11536;50.860;4.286;2023-05-07T11:58:38;18.10;99.90
22738;DHT22;11536;50.860;4.286;2023-05-07T12:01:04;18.00;99.90
22738;DHT22;11536;50.860;4.286;2023-05-07T12:03:29;18.00;99.90
22738;DHT22;11536;50.860;4.286;2023-05-07T12:05:55;18.10;99.90
22738;DHT22;11536;50.860;4.286;2023-05-07T12:08:22;18.10;99.90
22738;DHT22;11536;50.860;4.286;2023-05-07T12:10:50;18.10;99.90
22738;DHT22;11536;50.860;4.286;2023-05-07T12:13:22;18.10;99.90
22738;DHT22;11536;50.860;4.286;2023-05-07T12:15:52;18.20;99.90
22738;DHT22;11536;50.860;4.286;2023-05-07T12:18:18;18.20;99.90
22738;DHT22;11536;50.860;4.286;2023-05-07T12:20:44;18.20;99.90
22738;DHT22;11536;50.860;4.286;2023-05-07T12:23:11;18.30;99.90
22738;DHT22;11536;50.860;4.286;2023-05-07T12:25:38;18.30;99.90
22738;DHT22;11536;50.860;4.286;2023-05-07T12:28:04;18.30;99.90
22738;DHT22;11536;50.860;4.286;2023-05-07T12:30:40;18.30;99.90
22738;DHT22;11536;50.860;4.286;2023-05-07T12:33:06;18.30;99.90
22738;DHT22;11536;50.860;4.286;2023-05-07T12:35:36;18.30;99.90
22738;DHT22;11536;50.860;4.286;2023-05-07T12:38:02;18.30;99.90
22738;DHT22;11536;50.860;4.286;2023-05-07T12:41:02;18.30;99.90
22738;DHT22;11536;50.860;4.286;2023-05-07T12:43:28;18.40;99.90
22738;DHT22;11536;50.860;4.286;2023-05-07T12:45:56;18.40;99.90
22738;DHT22;11536;50.860;4.286;2023-05-07T12:48:23;18.40;99.90
22738;DHT22;11536;50.860;4.286;2023-05-07T12:50:56;18.40;99.90
22738;DHT22;11536;50.860;4.286;2023-05-07T12:53:23;18.40;99.90
22738;DHT22;11536;50.860;4.286;2023-05-07T12:55:52;18.40;99.90
22738;DHT22;11536;50.860;4.286;2023-05-07T12:58:30;18.50;99.90
22738;DHT22;11536;50.860;4.286;2023-05-07T13:00:58;18.50;99.90
22738;DHT22;11536;50.860;4.286;2023-05-07T13:03:35;18.50;99.90
22738;DHT22;11536;50.860;4.286;2023-05-07T13:06:02;18.50;99.90
22738;DHT22;11536;50.860;4.286;2023-05-07T13:08:33;18.60;99.90
22738;DHT22;11536;50.860;4.286;2023-05-07T13:11:00;18.60;99.90
22738;DHT22;11536;50.860;4.286;2023-05-07T13:13:30;18.60;99.90
22738;DHT22;11536;50.860;4.286;2023-05-07T13:15:56;18.60;99.90
22738;DHT22;11536;50.860;4.286;2023-05-07T13:18:22;18.60;99.90
22738;DHT22;11536;50.860;4.286;2023-05-07T13:20:47;18.60;99.90
22738;DHT22;11536;50.860;4.286;2023-05-07T13:23:13;18.60;99.90
22738;DHT22;11536;50.860;4.286;2023-05-07T13:25:39;18.60;99.90
22738;DHT22;11536;50.860;4.286;2023-05-07T13:28:06;18.70;99.90
22738;DHT22;11536;50.860;4.286;2023-05-07T13:30:32;18.60;99.90
22738;DHT22;11536;50.860;4.286;2023-05-07T13:33:00;18.70;99.90
22738;DHT22;11536;50.860;4.286;2023-05-07T13:35:26;18.70;99.90
22738;DHT22;11536;50.860;4.286;2023-05-07T13:37:52;18.60;99.90
22738;DHT22;11536;50.860;4.286;2023-05-07T13:40:21;18.60;99.90
22738;DHT22;11536;50.860;4.286;2023-05-07T13:42:47;18.60;99.90
22738;DHT22;11536;50.860;4.286;2023-05-07T13:45:13;18.70;99.90
22738;DHT22;11536;50.860;4.286;2023-05-07T13:47:43;18.70;99.90
22738;DHT22;11536;50.860;4.286;2023-05-07T13:50:10;18.70;99.90
22738;DHT22;11536;50.860;4.286;2023-05-07T13:52:37;18.70;99.90
22738;DHT22;11536;50.860;4.286;2023-05-07T13:55:03;18.70;99.90
22738;DHT22;11536;50.860;4.286;2023-05-07T13:57:29;18.80;99.90
22738;DHT22;11536;50.860;4.286;2023-05-07T13:59:55;18.80;99.90
22738;DHT22;11536;50.860;4.286;2023-05-07T14:02:20;18.80;99.90
22738;DHT22;11536;50.860;4.286;2023-05-07T14:04:46;18.80;99.90
22738;DHT22;11536;50.860;4.286;2023-05-07T14:07:12;18.80;99.90
22738;DHT22;11536;50.860;4.286;2023-05-07T14:09:37;18.80;99.90
22738;DHT22;11536;50.860;4.286;2023-05-07T14:12:03;18.80;99.90
22738;DHT22;11536;50.860;4.286;2023-05-07T14:14:29;18.80;99.90
22738;DHT22;11536;50.860;4.286;2023-05-07T14:16:54;18.80;99.90
22738;DHT22;11536;50.860;4.286;2023-05-07T14:19:20;18.90;99.90
22738;DHT22;11536;50.860;4.286;2023-05-07T14:21:48;18.80;99.90
22738;DHT22;11536;50.860;4.286;2023-05-07T14:24:13;18.90;99.90
22738;DHT22;11536;50.860;4.286;2023-05-07T14:26:40;18.90;99.90
22738;DHT22;11536;50.860;4.286;2023-05-07T14:29:05;18.90;99.90
22738;DHT22;11536;50.860;4.286;2023-05-07T14:31:31;18.90;99.90
22738;DHT22;11536;50.860;4.286;2023-05-07T14:33:58;18.90;99.90
22738;DHT22;11536;50.860;4.286;2023-05-07T14:36:24;18.90;99.90
22738;DHT22;11536;50.860;4.286;2023-05-07T14:38:52;18.90;99.90
22738;DHT22;11536;50.860;4.286;2023-05-07T14:41:20;18.90;99.90
22738;DHT22;11536;50.860;4.286;2023-05-07T14:43:47;18.90;99.90
22738;DHT22;11536;50.860;4.286;2023-05-07T14:46:18;18.90;99.90
22738;DHT22;11536;50.860;4.286;2023-05-07T14:48:47;18.90;99.90
22738;DHT22;11536;50.860;4.286;2023-05-07T14:51:13;18.90;99.90
22738;DHT22;11536;50.860;4.286;2023-05-07T14:53:40;18.90;99.90
22738;DHT22;11536;50.860;4.286;2023-05-07T14:56:06;18.90;99.90
22738;DHT22;11536;50.860;4.286;2023-05-07T14:58:32;18.90;99.90
22738;DHT22;11536;50.860;4.286;2023-05-07T15:00:58;18.90;99.90
22738;DHT22;11536;50.860;4.286;2023-05-07T15:03:24;18.90;99.90
22738;DHT22;11536;50.860;4.286;2023-05-07T15:05:50;18.90;99.90
22738;DHT22;11536;50.860;4.286;2023-05-07T15:08:18;18.90;99.90
22738;DHT22;11536;50.860;4.286;2023-05-07T15:10:45;19.00;99.90
22738;DHT22;11536;50.860;4.286;2023-05-07T15:13:11;18.90;99.90
22738;DHT22;11536;50.860;4.286;2023-05-07T15:15:38;19.00;99.90
22738;DHT22;11536;50.860;4.286;2023-05-07T15:18:04;18.90;99.90
22738;DHT22;11536;50.860;4.286;2023-05-07T15:20:33;19.00;99.90
22738;DHT22;11536;50.860;4.286;2023-05-07T15:22:59;18.90;99.90
22738;DHT22;11536;50.860;4.286;2023-05-07T15:25:28;18.90;99.90
22738;DHT22;11536;50.860;4.286;2023-05-07T15:27:54;19.00;99.90
22738;DHT22;11536;50.860;4.286;2023-05-07T15:30:20;18.90;99.90
22738;DHT22;11536;50.860;4.286;2023-05-07T15:32:46;18.90;99.90
22738;DHT22;11536;50.860;4.286;2023-05-07T15:35:12;18.90;99.90
22738;DHT22;11536;50.860;4.286;2023-05-07T15:37:38;18.90;99.90
22738;DHT22;11536;50.860;4.286;2023-05-07T15:40:04;18.90;99.90
22738;DHT22;11536;50.860;4.286;2023-05-07T15:42:32;18.90;99.90
22738;DHT22;11536;50.860;4.286;2023-05-07T15:44:58;18.90;99.90
22738;DHT22;11536;50.860;4.286;2023-05-07T15:47:26;18.90;99.90
22738;DHT22;11536;50.860;4.286;2023-05-07T15:49:51;18.80;99.90
22738;DHT22;11536;50.860;4.286;2023-05-07T15:52:17;18.90;99.90
22738;DHT22;11536;50.860;4.286;2023-05-07T15:54:43;18.80;99.90
22738;DHT22;11536;50.860;4.286;2023-05-07T15:57:08;18.80;99.90